Time;durP1;ratioP1;P1;durP2;ratioP2;P2;SDS_P1;SDS_P2;PMS_P1;PMS_P2;Temp;Humidity;BMP_temperature;BMP_pressure;BME280_temperature;BME280_humidity;BME280_pressure;Samples;Min_cycle;Max_cycle;Signal;HPM_P1;HPM_P2
2022/09/05 00:02:05;;;;;;;10.00;3.53;;;;;;;;;;4420851;32;20082;-71
2022/09/05 00:16:43;;;;;;;6.47;3.20;;;;;;;;;;4329925;33;20041;-71
2022/09/05 00:19:28;;;;;;;7.72;3.37;;;;;;;;;;4348121;33;20172;-70
2022/09/05 00:22:22;;;;;;;;;;;;;;;;;;;;;
2022/09/05 00:28:41;;;;;;;;;;;;;;;;;;;;;
2022/09/05 00:37:24;;;;;;;7.55;4.43;;;;;;;;;;4344425;33;20104;-71
2022/09/05 00:39:49;;;;;;;7.30;3.97;;;;;;;;;;4362341;32;20039;-70
2022/09/05 00:42:17;;;;;;;7.47;4.28;;;;;;;;;;4380191;32;20399;-71
2022/09/05 00:51:07;;;;;;;6.18;4.78;;;;;;;;;;4406658;32;20043;-70
2022/09/05 00:59:45;;;;;;;7.75;5.57;;;;;;;;;;4421663;32;20446;-70
2022/09/05 01:05:32;;;;;;;12.52;7.32;;;;;;;;;;4421690;32;20398;-70
2022/09/05 01:08:16;;;;;;;13.35;6.95;;;;;;;;;;4420237;32;20026;-70
2022/09/05 01:14:14;;;;;;;;;;;;;;;;;;;;;
2022/09/05 01:23:14;;;;;;;;;;;;;;;;;;;;;
2022/09/05 01:28:51;;;;;;;14.77;8.10;;;;;;;;;;4422526;32;20075;-70
2022/09/05 01:31:20;;;;;;;10.85;8.65;;;;;;;;;;4423705;32;20026;-70
2022/09/05 01:34:17;;;;;;;10.50;8.20;;;;;;;;;;4423310;32;20030;-70
2022/09/05 01:37:09;;;;;;;12.73;8.68;;;;;;;;;;4381142;32;20079;-70
2022/09/05 01:49:08;;;;;;;11.18;8.57;;;;;;;;;;4408885;32;20041;-70
2022/09/05 01:58:18;;;;;;;15.75;8.98;;;;;;;;;;4376047;32;20053;-70
2022/09/05 02:00:54;;;;;;;14.23;9.45;;;;;;;;;;4374898;32;20165;-70
2022/09/05 02:03:29;;;;;;;15.90;9.95;;;;;;;;;;4405629;32;20029;-70
2022/09/05 02:06:18;;;;;;;10.75;8.95;;;;;;;;;;4421684;32;20029;-71
2022/09/05 02:08:58;;;;;;;11.00;9.70;;;;;;;;;;4408012;32;20042;-70
2022/09/05 02:39:22;;;;;;;16.92;11.55;;;;;;;;;;4375389;32;20068;-69
2022/09/05 02:41:53;;;;;;;15.13;11.95;;;;;;;;;;4374478;32;20121;-70
2022/09/05 02:44:37;;;;;;;15.30;12.10;;;;;;;;;;4383629;32;20272;-70
2022/09/05 02:47:15;;;;;;;16.37;11.82;;;;;;;;;;4390848;32;20055;-70
2022/09/05 02:52:48;;;;;;;15.57;11.68;;;;;;;;;;4357975;32;20077;-70
2022/09/05 02:55:24;;;;;;;17.58;12.45;;;;;;;;;;4408303;32;20027;-70
2022/09/05 02:58:11;;;;;;;17.10;13.35;;;;;;;;;;4406987;32;20034;-70
2022/09/05 03:01:00;;;;;;;16.05;12.93;;;;;;;;;;4406478;32;20038;-70
2022/09/05 03:03:33;;;;;;;18.25;13.30;;;;;;;;;;4377369;32;20360;-70
2022/09/05 03:06:31;;;;;;;14.68;13.10;;;;;;;;;;4406796;32;20022;-70
2022/09/05 03:09:02;;;;;;;19.12;14.55;;;;;;;;;;4380239;32;20056;-70
2022/09/05 03:11:59;;;;;;;19.17;13.38;;;;;;;;;;4407685;32;20014;-70
2022/09/05 03:38:11;;;;;;;20.23;13.57;;;;;;;;;;4391145;32;20463;-70
2022/09/05 03:41:00;;;;;;;17.77;15.02;;;;;;;;;;4390175;32;20023;-70
2022/09/05 03:43:37;;;;;;;19.17;14.65;;;;;;;;;;4391193;32;20081;-70
2022/09/05 03:46:10;;;;;;;17.15;15.10;;;;;;;;;;4390925;32;20058;-70
2022/09/05 03:55:04;;;;;;;20.50;15.40;;;;;;;;;;4406714;32;20033;-70
2022/09/05 03:57:41;;;;;;;22.62;15.05;;;;;;;;;;4406694;32;20151;-70
2022/09/05 04:00:19;;;;;;;21.98;17.35;;;;;;;;;;4406912;32;20143;-71
2022/09/05 04:02:59;;;;;;;20.70;16.15;;;;;;;;;;4405595;32;20037;-70
2022/09/05 04:05:54;;;;;;;;;;;;;;;;;;;;;
2022/09/05 04:08:43;;;;;;;24.92;17.25;;;;;;;;;;4405150;32;20038;-70
2022/09/05 04:11:29;;;;;;;20.55;17.35;;;;;;;;;;4406968;32;20018;-70
2022/09/05 04:14:13;;;;;;;21.15;15.23;;;;;;;;;;4405552;32;20383;-70
2022/09/05 04:16:44;;;;;;;20.33;16.15;;;;;;;;;;4406345;32;20073;-70
2022/09/05 04:19:38;;;;;;;19.00;15.65;;;;;;;;;;4405956;32;20109;-70
2022/09/05 04:25:33;;;;;;;22.10;15.98;;;;;;;;;;4372733;32;20063;-72
2022/09/05 04:34:46;;;;;;;;;;;;;;;;;;;;;
2022/09/05 04:43:56;;;;;;;24.00;17.15;;;;;;;;;;4420603;32;20044;-71
2022/09/05 04:46:42;;;;;;;17.37;15.68;;;;;;;;;;4405278;32;20083;-71
2022/09/05 04:55:33;;;;;;;20.17;16.60;;;;;;;;;;4423053;32;20064;-72
2022/09/05 04:58:25;;;;;;;26.70;17.37;;;;;;;;;;4423425;32;20025;-71
2022/09/05 05:04:35;;;;;;;21.60;15.20;;;;;;;;;;4346180;33;20062;-71
2022/09/05 05:07:34;;;;;;;22.23;17.50;;;;;;;;;;4331646;33;20058;-71
2022/09/05 05:10:02;;;;;;;19.95;17.73;;;;;;;;;;4331506;33;20023;-71
2022/09/05 05:13:03;;;;;;;;;;;;;;;;;;;;;
2022/09/05 05:15:29;;;;;;;23.95;17.05;;;;;;;;;;4309148;33;20028;-70
2022/09/05 05:17:55;;;;;;;20.90;17.62;;;;;;;;;;4330958;33;20093;-70
2022/09/05 05:20:25;;;;;;;23.12;17.15;;;;;;;;;;4374621;32;20026;-70
2022/09/05 05:23:11;;;;;;;24.65;17.30;;;;;;;;;;4408314;32;20131;-70
2022/09/05 05:25:55;;;;;;;22.80;19.12;;;;;;;;;;4406372;32;20051;-70
2022/09/05 05:28:30;;;;;;;18.02;15.77;;;;;;;;;;4414172;32;20031;-70
2022/09/05 05:31:21;;;;;;;27.73;18.40;;;;;;;;;;4414973;32;20065;-72
2022/09/05 05:40:18;;;;;;;25.37;18.70;;;;;;;;;;4345895;33;20040;-71
2022/09/05 05:46:10;;;;;;;;;;;;;;;;;;;;;
2022/09/05 05:51:49;;;;;;;26.37;19.15;;;;;;;;;;4400965;32;20496;-72
2022/09/05 05:54:14;;;;;;;20.70;18.10;;;;;;;;;;4422937;32;20045;-71
2022/09/05 05:56:49;;;;;;;23.92;19.45;;;;;;;;;;4422123;32;20404;-71
2022/09/05 05:59:49;;;;;;;23.05;17.92;;;;;;;;;;4422372;32;20026;-72
2022/09/05 06:14:39;;;;;;;22.98;19.52;;;;;;;;;;4286530;33;20120;-71
2022/09/05 06:17:05;;;;;;;24.50;18.98;;;;;;;;;;4330230;33;20032;-71
2022/09/05 06:19:49;;;;;;;36.03;25.30;;;;;;;;;;4361966;32;20052;-72
2022/09/05 06:22:18;;;;;;;24.80;18.50;;;;;;;;;;4422327;32;20057;-71
2022/09/05 06:28:11;;;;;;;24.80;19.23;;;;;;;;;;4417964;32;20122;-71
2022/09/05 06:31:21;;;;;;;18.37;15.95;;;;;;;;;;4412044;32;20098;-70
2022/09/05 06:37:30;;;;;;;21.45;17.48;;;;;;;;;;4420905;32;20103;-72
2022/09/05 06:39:58;;;;;;;27.62;19.12;;;;;;;;;;4401871;32;20027;-71
2022/09/05 06:42:52;;;;;;;20.85;17.52;;;;;;;;;;4406754;32;20348;-71
2022/09/05 06:49:07;;;;;;;28.95;19.98;;;;;;;;;;4375240;32;20027;-71
2022/09/05 06:54:45;;;;;;;28.30;19.35;;;;;;;;;;4374269;32;20058;-71
2022/09/05 06:57:25;;;;;;;21.70;19.20;;;;;;;;;;4375668;32;20416;-68
2022/09/05 07:00:22;;;;;;;;;;;;;;;;;;;;;
2022/09/05 07:09:21;;;;;;;22.70;18.75;;;;;;;;;;4389665;32;20069;-72
2022/09/05 07:12:05;;;;;;;22.33;17.70;;;;;;;;;;4389122;32;20030;-72
2022/09/05 07:14:50;;;;;;;23.67;18.08;;;;;;;;;;4376536;32;20053;-71
2022/09/05 07:17:17;;;;;;;30.83;17.85;;;;;;;;;;4415077;32;20030;-71
2022/09/05 07:19:49;;;;;;;19.85;16.95;;;;;;;;;;4424580;32;20411;-71
2022/09/05 07:22:14;;;;;;;20.73;16.08;;;;;;;;;;4394143;32;20033;-71
2022/09/05 07:24:42;;;;;;;18.42;15.15;;;;;;;;;;4406749;32;20048;-71
2022/09/05 07:27:28;;;;;;;18.35;14.57;;;;;;;;;;4420135;32;20022;-71
2022/09/05 07:29:56;;;;;;;21.65;14.32;;;;;;;;;;4392114;32;20337;-70
2022/09/05 07:32:23;;;;;;;16.95;13.23;;;;;;;;;;4415063;32;20061;-71
2022/09/05 07:34:49;;;;;;;35.70;14.57;;;;;;;;;;4420570;32;20351;-73
2022/09/05 07:37:20;;;;;;;24.87;13.10;;;;;;;;;;4426371;32;20051;-72
2022/09/05 07:40:09;;;;;;;30.62;14.63;;;;;;;;;;4424759;32;20033;-72
2022/09/05 07:43:04;;;;;;;30.10;16.95;;;;;;;;;;4421580;32;20064;-71
2022/09/05 07:45:30;;;;;;;35.00;14.52;;;;;;;;;;4401178;32;20416;-71
2022/09/05 07:47:59;;;;;;;24.63;14.43;;;;;;;;;;4420996;32;20021;-72
2022/09/05 07:50:32;;;;;;;18.70;12.20;;;;;;;;;;4420663;32;20091;-70
2022/09/05 07:53:03;;;;;;;29.77;12.37;;;;;;;;;;4406484;32;20042;-72
2022/09/05 07:55:34;;;;;;;15.48;10.25;;;;;;;;;;4407410;32;20047;-72
2022/09/05 07:58:06;;;;;;;17.92;10.23;;;;;;;;;;4422169;32;20026;-72
2022/09/05 08:00:32;;;;;;;15.48;11.20;;;;;;;;;;4419851;32;20468;-71
2022/09/05 08:02:59;;;;;;;15.18;10.20;;;;;;;;;;4421335;32;20073;-71
2022/09/05 08:05:27;;;;;;;13.35;9.27;;;;;;;;;;4420695;32;20112;-72
2022/09/05 08:07:58;;;;;;;12.10;10.80;;;;;;;;;;4414327;32;20128;-71
2022/09/05 08:10:35;;;;;;;18.62;10.85;;;;;;;;;;4420204;32;20116;-69
2022/09/05 08:13:03;;;;;;;14.63;9.48;;;;;;;;;;4414033;32;20075;-71
2022/09/05 08:15:38;;;;;;;16.50;10.30;;;;;;;;;;4412352;32;20048;-72
2022/09/05 08:18:22;;;;;;;20.02;11.57;;;;;;;;;;4413155;32;20041;-72
2022/09/05 08:21:06;;;;;;;12.60;10.10;;;;;;;;;;4407122;32;20025;-71
2022/09/05 08:23:53;;;;;;;21.58;10.40;;;;;;;;;;4394117;32;20139;-72
2022/09/05 08:26:37;;;;;;;16.45;9.18;;;;;;;;;;4406817;32;20091;-72
2022/09/05 10:10:04;;;;;;;4.72;2.70;;;;;;;;;;4420222;32;20049;-72
2022/09/05 10:12:48;;;;;;;13.32;2.83;;;;;;;;;;4422601;32;20075;-70
2022/09/05 10:15:25;;;;;;;4.93;2.00;;;;;;;;;;4408694;32;20026;-71
2022/09/05 10:18:00;;;;;;;6.30;2.60;;;;;;;;;;4421731;32;20067;-72
2022/09/05 10:20:44;;;;;;;8.15;2.28;;;;;;;;;;4417643;32;20053;-71
2022/09/05 10:23:31;;;;;;;8.93;2.37;;;;;;;;;;4406923;32;20105;-71
2022/09/05 10:26:15;;;;;;;6.68;2.78;;;;;;;;;;4392313;32;20022;-70
2022/09/05 10:28:41;;;;;;;5.62;2.40;;;;;;;;;;4412871;32;20042;-72
2022/09/05 10:31:16;;;;;;;4.97;2.28;;;;;;;;;;4388815;32;20022;-72
2022/09/05 10:33:47;;;;;;;6.57;2.20;;;;;;;;;;4406226;32;20027;-71
2022/09/05 10:36:38;;;;;;;9.00;2.62;;;;;;;;;;4407320;32;20119;-71
2022/09/05 10:39:15;;;;;;;5.18;2.72;;;;;;;;;;4404267;32;20022;-72
2022/09/05 10:41:48;;;;;;;6.12;2.62;;;;;;;;;;4406942;32;20030;-73
2022/09/05 10:44:16;;;;;;;5.45;2.45;;;;;;;;;;4415664;32;20038;-72
2022/09/05 10:46:45;;;;;;;7.60;2.70;;;;;;;;;;4417224;32;20329;-72
2022/09/05 10:49:12;;;;;;;7.18;2.53;;;;;;;;;;4421867;32;20030;-72
2022/09/05 10:51:46;;;;;;;3.83;2.17;;;;;;;;;;4420003;32;20078;-71
2022/09/05 10:54:27;;;;;;;4.60;2.08;;;;;;;;;;4419154;32;20428;-72
2022/09/05 10:57:04;;;;;;;4.57;2.30;;;;;;;;;;4405935;32;20408;-72
2022/09/05 10:59:54;;;;;;;5.40;1.92;;;;;;;;;;4407977;32;20030;-71
2022/09/05 11:02:24;;;;;;;6.87;1.90;;;;;;;;;;4413194;32;20038;-73
2022/09/05 11:05:05;;;;;;;3.83;1.73;;;;;;;;;;4407454;32;20038;-72
2022/09/05 11:08:00;;;;;;;6.07;2.30;;;;;;;;;;4394824;32;20394;-72
2022/09/05 11:10:45;;;;;;;4.07;1.87;;;;;;;;;;4411445;32;20044;-72
2022/09/05 11:13:15;;;;;;;4.25;1.92;;;;;;;;;;4406831;32;20088;-72
2022/09/05 11:15:50;;;;;;;9.43;2.65;;;;;;;;;;4404964;32;20065;-72
2022/09/05 11:18:31;;;;;;;4.47;1.87;;;;;;;;;;4404756;32;20152;-73
2022/09/05 11:21:07;;;;;;;5.70;2.20;;;;;;;;;;4407279;32;20026;-73
2022/09/05 11:23:32;;;;;;;7.20;1.80;;;;;;;;;;4413567;32;20034;-73
2022/09/05 11:26:01;;;;;;;8.35;2.40;;;;;;;;;;4405972;32;20056;-72
2022/09/05 11:28:36;;;;;;;4.40;1.80;;;;;;;;;;4405588;32;20037;-73
2022/09/05 11:31:04;;;;;;;3.30;1.90;;;;;;;;;;4391721;32;20056;-73
2022/09/05 11:33:38;;;;;;;5.18;1.73;;;;;;;;;;4405232;32;20025;-72
2022/09/05 11:36:09;;;;;;;5.07;2.75;;;;;;;;;;4406135;32;20313;-72
2022/09/05 11:38:45;;;;;;;4.65;2.00;;;;;;;;;;4405828;32;20059;-73
2022/09/05 11:41:29;;;;;;;5.32;1.87;;;;;;;;;;4411952;32;20034;-73
2022/09/05 11:44:15;;;;;;;4.03;3.08;;;;;;;;;;4405622;32;20021;-73
2022/09/05 11:46:56;;;;;;;6.45;2.08;;;;;;;;;;4405364;32;20035;-73
2022/09/05 11:49:24;;;;;;;8.65;2.00;;;;;;;;;;4404232;32;20051;-72
2022/09/05 11:52:01;;;;;;;4.15;1.60;;;;;;;;;;4405691;32;20440;-72
2022/09/05 11:54:27;;;;;;;7.82;2.40;;;;;;;;;;4405293;32;20064;-72
2022/09/05 11:57:22;;;;;;;6.68;1.70;;;;;;;;;;4405703;32;20416;-73
2022/09/05 12:00:09;;;;;;;5.97;2.20;;;;;;;;;;4388906;32;20096;-73
2022/09/05 12:02:59;;;;;;;9.60;2.47;;;;;;;;;;4402382;32;20085;-73
2022/09/05 12:05:36;;;;;;;8.93;2.35;;;;;;;;;;4405890;32;20064;-72
2022/09/05 12:08:01;;;;;;;10.57;2.10;;;;;;;;;;4405692;32;20022;-72
2022/09/05 12:10:46;;;;;;;6.28;2.40;;;;;;;;;;4403670;32;20123;-73
2022/09/05 12:14:02;;;;;;;18.27;5.93;;;;;;;;;;4401382;32;20101;-73
2022/09/05 12:20:32;;;;;;;2.40;1.80;;;;;;;;;;4327433;33;20085;-73
2022/09/05 12:23:11;;;;;;;88.20;9.50;;;;;;;;;;4314287;33;20054;-72
2022/09/05 12:29:18;;;;;;;4.20;1.85;;;;;;;;;;4328241;33;20047;-73
2022/09/05 12:31:49;;;;;;;2.45;1.70;;;;;;;;;;4328138;33;20085;-73
2022/09/05 12:34:34;;;;;;;8.48;2.30;;;;;;;;;;4399354;32;20407;-72
2022/09/05 12:37:01;;;;;;;4.53;1.80;;;;;;;;;;4404729;32;20034;-72
2022/09/05 12:39:42;;;;;;;8.75;2.22;;;;;;;;;;4404854;32;20038;-72
2022/09/05 12:42:22;;;;;;;4.22;1.80;;;;;;;;;;4404449;32;20034;-73
2022/09/05 12:44:57;;;;;;;4.87;1.90;;;;;;;;;;4411720;32;20038;-73
2022/09/05 12:47:28;;;;;;;4.00;1.87;;;;;;;;;;4420346;32;20355;-73
2022/09/05 12:49:57;;;;;;;5.87;1.70;;;;;;;;;;4414270;32;20086;-73
2022/09/05 12:52:35;;;;;;;5.18;1.67;;;;;;;;;;4417052;32;20404;-73
2022/09/05 12:55:18;;;;;;;3.20;1.55;;;;;;;;;;4412522;32;20021;-73
2022/09/05 12:57:49;;;;;;;4.03;1.60;;;;;;;;;;4404829;32;20029;-73
2022/09/05 13:00:22;;;;;;;4.40;1.70;;;;;;;;;;4412618;32;20075;-72
2022/09/05 13:02:52;;;;;;;2.85;1.62;;;;;;;;;;4418384;32;20454;-72
2022/09/05 13:05:34;;;;;;;;;;;;;;;;;;;;;
2022/09/05 13:08:01;;;;;;;6.95;2.12;;;;;;;;;;4406275;32;20076;-73
2022/09/05 13:13:33;;;;;;;4.37;1.67;;;;;;;;;;4422647;32;20115;-73
2022/09/05 13:16:00;;;;;;;;;;;;;;;;;;4423817;32;20041;-73
2022/09/05 13:18:29;;;;;;;4.60;2.80;;;;;;;;;;4419466;32;19941;-74
2022/09/05 13:20:55;;;;;;;5.68;1.95;;;;;;;;;;4408092;32;20026;-74
2022/09/05 13:23:48;;;;;;;4.75;1.75;;;;;;;;;;4413752;32;20344;-74
2022/09/05 13:26:16;;;;;;;4.60;2.00;;;;;;;;;;4405740;32;20057;-75
2022/09/05 13:29:03;;;;;;;3.40;1.70;;;;;;;;;;4407095;32;20089;-74
2022/09/05 13:32:08;;;;;;;;;;;;;;;;;;;;;
2022/09/05 13:34:42;;;;;;;4.85;2.00;;;;;;;;;;4401566;32;20092;-73
2022/09/05 13:37:22;;;;;;;4.15;1.80;;;;;;;;;;4416435;32;20038;-73
2022/09/05 13:39:50;;;;;;;8.35;2.45;;;;;;;;;;4414704;32;20080;-74
2022/09/05 13:42:52;;;;;;;6.22;2.20;;;;;;;;;;4404526;32;20034;-73
2022/09/05 13:45:18;;;;;;;4.20;1.77;;;;;;;;;;4419319;32;20042;-73
2022/09/05 13:47:56;;;;;;;5.47;1.77;;;;;;;;;;4412543;32;20091;-74
2022/09/05 13:50:29;;;;;;;4.32;1.55;;;;;;;;;;4421269;32;20038;-74
2022/09/05 13:53:24;;;;;;;3.25;2.05;;;;;;;;;;4415991;32;20029;-74
2022/09/05 13:55:54;;;;;;;2.80;1.95;;;;;;;;;;4417371;32;20022;-75
2022/09/05 13:58:48;;;;;;;6.28;2.00;;;;;;;;;;4418297;32;20035;-74
2022/09/05 14:08:02;;;;;;;8.07;2.22;;;;;;;;;;4361548;32;20153;-73
2022/09/05 14:10:55;;;;;;;7.97;2.50;;;;;;;;;;4416470;32;20042;-73
2022/09/05 14:13:27;;;;;;;3.08;1.45;;;;;;;;;;4422358;32;20033;-73
2022/09/05 14:28:34;;;;;;;8.05;2.25;;;;;;;;;;4379809;32;20200;-73
2022/09/05 14:31:25;;;;;;;9.15;2.67;;;;;;;;;;4372021;32;20100;-74
2022/09/05 14:33:58;;;;;;;6.53;2.30;;;;;;;;;;4372104;32;20026;-73
2022/09/05 14:36:40;;;;;;;2.45;1.50;;;;;;;;;;4417061;32;20453;-74
2022/09/05 14:39:08;;;;;;;2.50;1.90;;;;;;;;;;4428545;32;20037;-73
2022/09/05 14:41:37;;;;;;;4.32;2.10;;;;;;;;;;4424102;32;20105;-73
2022/09/05 14:44:22;;;;;;;3.72;1.95;;;;;;;;;;4421369;32;20112;-73
2022/09/05 14:47:05;;;;;;;5.03;2.67;;;;;;;;;;4395143;32;20048;-73
2022/09/05 14:49:33;;;;;;;6.22;1.90;;;;;;;;;;4421873;32;20048;-74
2022/09/05 14:52:11;;;;;;;5.60;2.33;;;;;;;;;;4418639;32;20042;-73
2022/09/05 14:54:38;;;;;;;4.10;1.87;;;;;;;;;;4421788;32;20045;-72
2022/09/05 14:57:05;;;;;;;5.57;2.20;;;;;;;;;;4421713;32;20061;-73
2022/09/05 14:59:53;;;;;;;4.10;2.10;;;;;;;;;;4421636;32;20033;-73
2022/09/05 15:02:24;;;;;;;13.00;2.72;;;;;;;;;;4415121;32;20065;-73
2022/09/05 15:04:50;;;;;;;4.30;2.15;;;;;;;;;;4421086;32;20026;-73
2022/09/05 15:07:29;;;;;;;2.92;1.90;;;;;;;;;;4420102;32;20025;-73
2022/09/05 15:16:22;;;;;;;4.57;1.80;;;;;;;;;;4337389;33;20126;-75
2022/09/05 15:18:54;;;;;;;5.05;2.15;;;;;;;;;;4401128;32;20450;-75
2022/09/05 15:21:35;;;;;;;5.03;2.42;;;;;;;;;;4409313;32;20052;-73
2022/09/05 15:24:19;;;;;;;3.53;2.00;;;;;;;;;;4415693;32;20015;-74
2022/09/05 15:27:05;;;;;;;4.62;2.10;;;;;;;;;;4421153;32;20088;-74
2022/09/05 15:29:30;;;;;;;;;;;;;;;;;;4422013;32;20025;-72
2022/09/05 15:32:14;;;;;;;2.53;1.90;;;;;;;;;;4421324;32;19933;-73
2022/09/05 15:34:39;;;;;;;3.03;2.30;;;;;;;;;;4421129;32;20026;-73
2022/09/05 15:37:26;;;;;;;3.95;2.65;;;;;;;;;;4420452;32;20101;-73
2022/09/05 15:40:10;;;;;;;5.45;2.25;;;;;;;;;;4421221;32;20064;-72
2022/09/05 15:42:36;;;;;;;5.75;1.87;;;;;;;;;;4407567;32;20026;-73
2022/09/05 15:45:05;;;;;;;11.70;2.28;;;;;;;;;;4420728;32;20034;-73
2022/09/05 15:47:32;;;;;;;5.85;2.75;;;;;;;;;;4420683;32;20026;-73
2022/09/05 15:49:58;;;;;;;10.60;2.60;;;;;;;;;;4420937;32;20033;-73
2022/09/05 15:52:25;;;;;;;5.95;3.08;;;;;;;;;;4407501;32;20356;-71
2022/09/05 15:54:52;;;;;;;6.68;2.62;;;;;;;;;;4420853;32;20055;-72
2022/09/05 15:57:28;;;;;;;10.25;2.90;;;;;;;;;;4420427;32;20034;-72
2022/09/05 15:59:57;;;;;;;6.47;3.33;;;;;;;;;;4420524;32;20029;-73
2022/09/05 16:02:27;;;;;;;8.50;3.35;;;;;;;;;;4420590;32;20088;-73
2022/09/05 16:05:12;;;;;;;7.40;3.15;;;;;;;;;;4420246;32;20105;-72
2022/09/05 16:07:40;;;;;;;8.68;3.58;;;;;;;;;;4417125;32;20085;-73
2022/09/05 16:10:06;;;;;;;6.22;3.10;;;;;;;;;;4412012;32;20038;-73
2022/09/05 16:12:35;;;;;;;4.22;2.90;;;;;;;;;;4417050;32;20042;-73
2022/09/05 16:15:02;;;;;;;11.57;2.90;;;;;;;;;;4421792;32;20033;-73
2022/09/05 16:17:36;;;;;;;6.80;3.05;;;;;;;;;;4406341;32;20101;-74
2022/09/05 16:20:06;;;;;;;5.03;2.53;;;;;;;;;;4406437;32;20060;-72
2022/09/05 16:22:33;;;;;;;6.15;2.90;;;;;;;;;;4418166;32;20063;-72
2022/09/05 16:25:01;;;;;;;5.95;2.95;;;;;;;;;;4418851;32;20026;-71
2022/09/05 16:27:52;;;;;;;6.12;3.45;;;;;;;;;;4420677;32;20359;-72
2022/09/05 16:30:44;;;;;;;5.60;2.80;;;;;;;;;;4415853;32;20026;-72
2022/09/05 16:33:17;;;;;;;9.98;2.97;;;;;;;;;;4416338;32;20052;-72
2022/09/05 16:35:53;;;;;;;7.00;3.20;;;;;;;;;;4420064;32;20026;-73
2022/09/05 16:38:21;;;;;;;4.47;3.08;;;;;;;;;;4419629;32;20091;-72
2022/09/05 16:40:50;;;;;;;10.10;2.72;;;;;;;;;;4419760;32;20026;-73
2022/09/05 16:43:19;;;;;;;4.50;2.80;;;;;;;;;;4419059;32;20053;-72
2022/09/05 16:45:54;;;;;;;7.00;3.35;;;;;;;;;;4420098;32;20065;-72
2022/09/05 16:48:25;;;;;;;8.93;3.13;;;;;;;;;;4408454;32;20034;-72
2022/09/05 16:50:53;;;;;;;6.37;2.78;;;;;;;;;;4424411;32;20059;-71
2022/09/05 16:53:34;;;;;;;5.35;3.10;;;;;;;;;;4423633;32;20045;-72
2022/09/05 16:56:25;;;;;;;8.73;3.35;;;;;;;;;;4423366;32;20038;-72
2022/09/05 16:58:53;;;;;;;4.50;3.40;;;;;;;;;;4417908;32;20076;-72
2022/09/05 17:01:21;;;;;;;10.27;3.62;;;;;;;;;;4423831;32;20033;-72
2022/09/05 17:03:57;;;;;;;9.50;3.25;;;;;;;;;;4423377;32;20064;-71
2022/09/05 17:06:22;;;;;;;;;;;;;;;;;;4423665;32;20026;-71
2022/09/05 17:08:49;;;;;;;7.90;3.25;;;;;;;;;;4422929;32;19952;-71
2022/09/05 17:11:15;;;;;;;8.13;3.85;;;;;;;;;;4408801;32;20082;-71
2022/09/05 17:14:05;;;;;;;7.57;3.22;;;;;;;;;;4423321;32;20022;-71
2022/09/05 17:16:43;;;;;;;6.07;3.30;;;;;;;;;;4414133;32;20037;-71
2022/09/05 17:19:21;;;;;;;7.65;3.35;;;;;;;;;;4423267;32;20025;-71
2022/09/05 17:22:02;;;;;;;8.85;3.47;;;;;;;;;;4424078;32;20038;-70
2022/09/05 17:24:29;;;;;;;6.32;3.60;;;;;;;;;;4421923;32;20030;-75
2022/09/05 17:27:11;;;;;;;6.82;3.60;;;;;;;;;;4410582;32;20029;-73
2022/09/05 17:29:43;;;;;;;7.05;3.65;;;;;;;;;;4427355;32;20067;-73
2022/09/05 17:32:15;;;;;;;5.62;3.97;;;;;;;;;;4422203;32;20413;-73
2022/09/05 17:34:50;;;;;;;7.18;3.90;;;;;;;;;;4421891;32;20038;-73
2022/09/05 17:37:28;;;;;;;6.50;3.33;;;;;;;;;;4421986;32;20033;-73
2022/09/05 17:39:56;;;;;;;4.85;3.15;;;;;;;;;;4421990;32;20026;-73
2022/09/05 17:42:53;;;;;;;7.37;3.67;;;;;;;;;;4422359;32;20098;-73
2022/09/05 17:45:18;;;;;;;8.82;3.28;;;;;;;;;;4408600;32;20083;-73
2022/09/05 17:47:47;;;;;;;10.38;3.72;;;;;;;;;;4421802;32;20034;-74
2022/09/05 17:50:32;;;;;;;9.18;4.03;;;;;;;;;;4407382;32;20018;-74
2022/09/05 17:53:02;;;;;;;8.32;2.97;;;;;;;;;;4407016;32;20038;-72
2022/09/05 17:55:33;;;;;;;11.60;3.78;;;;;;;;;;4420483;32;20097;-74
2022/09/05 17:58:18;;;;;;;7.57;3.78;;;;;;;;;;4402255;32;20034;-74
2022/09/05 18:00:48;;;;;;;8.02;3.65;;;;;;;;;;4416624;32;20061;-73
2022/09/05 18:03:31;;;;;;;7.37;4.43;;;;;;;;;;4420415;32;20026;-73
2022/09/05 18:05:59;;;;;;;10.07;3.45;;;;;;;;;;4417332;32;20025;-72
2022/09/05 18:08:49;;;;;;;5.22;3.37;;;;;;;;;;4407688;32;20538;-73
2022/09/05 18:11:20;;;;;;;8.25;3.42;;;;;;;;;;4418544;32;20328;-73
2022/09/05 18:13:55;;;;;;;9.30;3.95;;;;;;;;;;4421306;32;20051;-73
2022/09/05 18:16:28;;;;;;;9.05;4.12;;;;;;;;;;4407356;32;20017;-73
2022/09/05 18:18:54;;;;;;;9.77;3.55;;;;;;;;;;4406793;32;20087;-73
2022/09/05 18:21:21;;;;;;;8.13;3.83;;;;;;;;;;4406845;32;20042;-73
2022/09/05 18:23:50;;;;;;;12.88;3.58;;;;;;;;;;4421857;32;20382;-73
2022/09/05 18:26:20;;;;;;;11.60;3.58;;;;;;;;;;4406862;32;20037;-73
2022/09/05 18:28:58;;;;;;;11.07;3.47;;;;;;;;;;4418933;32;20418;-73
2022/09/05 18:31:36;;;;;;;8.43;3.67;;;;;;;;;;4406717;32;20057;-72
2022/09/05 18:34:17;;;;;;;9.05;3.97;;;;;;;;;;4398264;32;20026;-74
2022/09/05 18:36:49;;;;;;;8.10;3.85;;;;;;;;;;4421183;32;20402;-74
2022/09/05 18:39:27;;;;;;;7.00;3.20;;;;;;;;;;4421775;32;20059;-74
2022/09/05 18:41:52;;;;;;;7.07;2.85;;;;;;;;;;4420265;32;20065;-74
2022/09/05 18:44:18;;;;;;;20.70;2.78;;;;;;;;;;4420518;32;20396;-74
2022/09/05 18:46:45;;;;;;;13.82;3.17;;;;;;;;;;4406554;32;20091;-74
2022/09/05 18:49:22;;;;;;;6.82;2.62;;;;;;;;;;4419027;32;20063;-73
2022/09/05 18:51:59;;;;;;;15.48;2.42;;;;;;;;;;4407877;32;20390;-73
2022/09/05 18:54:25;;;;;;;13.57;3.33;;;;;;;;;;4421780;32;20371;-73
2022/09/05 18:56:52;;;;;;;6.78;3.10;;;;;;;;;;4408817;32;20362;-73
2022/09/05 18:59:20;;;;;;;10.18;2.60;;;;;;;;;;4421747;32;20140;-72
2022/09/05 19:01:49;;;;;;;9.15;3.15;;;;;;;;;;4420455;32;20022;-72
2022/09/05 19:04:37;;;;;;;10.30;2.65;;;;;;;;;;4407068;32;20069;-72
2022/09/05 19:07:07;;;;;;;12.55;3.37;;;;;;;;;;4410074;32;20313;-72
2022/09/05 19:09:34;;;;;;;11.10;3.20;;;;;;;;;;4421877;32;20344;-72
2022/09/05 19:12:04;;;;;;;10.45;3.92;;;;;;;;;;4422710;32;20074;-72
2022/09/05 19:14:32;;;;;;;9.20;3.00;;;;;;;;;;4436420;32;20052;-72
2022/09/05 19:17:20;;;;;;;9.25;3.08;;;;;;;;;;4421149;32;20034;-72
2022/09/05 19:20:11;;;;;;;5.40;2.70;;;;;;;;;;4412289;32;20490;-72
2022/09/05 19:22:45;;;;;;;6.53;3.00;;;;;;;;;;4420872;32;20483;-71
2022/09/05 19:25:24;;;;;;;6.30;2.92;;;;;;;;;;4420372;32;20093;-72
2022/09/05 19:27:54;;;;;;;11.12;3.30;;;;;;;;;;4420407;32;20026;-72
2022/09/05 19:30:27;;;;;;;13.73;8.02;;;;;;;;;;4419939;32;20041;-73
2022/09/05 19:32:56;;;;;;;6.30;2.90;;;;;;;;;;4420409;32;20359;-73
2022/09/05 19:35:24;;;;;;;6.78;3.22;;;;;;;;;;4420577;32;20026;-73
2022/09/05 19:37:50;;;;;;;12.85;3.87;;;;;;;;;;4433855;32;20025;-73
2022/09/05 19:40:21;;;;;;;14.07;3.62;;;;;;;;;;4430937;32;20056;-73
2022/09/05 19:42:47;;;;;;;11.48;5.30;;;;;;;;;;4406906;32;20030;-73
2022/09/05 19:45:14;;;;;;;7.18;3.50;;;;;;;;;;4415271;32;20041;-73
2022/09/05 19:47:39;;;;;;;12.57;4.90;;;;;;;;;;4407542;32;20385;-73
2022/09/05 19:50:20;;;;;;;7.43;4.18;;;;;;;;;;4421069;32;20026;-73
2022/09/05 19:52:47;;;;;;;7.15;5.03;;;;;;;;;;4420541;32;20029;-72
2022/09/05 19:55:19;;;;;;;6.82;3.50;;;;;;;;;;4420828;32;20084;-72
2022/09/05 19:57:48;;;;;;;7.60;4.30;;;;;;;;;;4421146;32;20532;-73
2022/09/05 20:00:19;;;;;;;6.60;3.92;;;;;;;;;;4420354;32;20067;-72
2022/09/05 20:02:48;;;;;;;7.85;4.37;;;;;;;;;;4421976;32;20442;-72
2022/09/05 20:05:16;;;;;;;8.68;4.85;;;;;;;;;;4421931;32;20025;-72
2022/09/05 20:07:51;;;;;;;8.93;5.78;;;;;;;;;;4421637;32;20021;-72
2022/09/05 20:10:52;;;;;;;8.60;6.80;;;;;;;;;;4421916;32;20033;-73
2022/09/05 20:13:19;;;;;;;11.88;8.20;;;;;;;;;;4406769;32;20514;-73
2022/09/05 20:15:44;;;;;;;13.27;8.73;;;;;;;;;;4422007;32;20057;-72
2022/09/05 20:18:26;;;;;;;10.15;8.50;;;;;;;;;;4420409;32;20517;-72
2022/09/05 20:20:59;;;;;;;13.15;9.07;;;;;;;;;;4418126;32;20030;-72
2022/09/05 20:23:26;;;;;;;12.43;8.82;;;;;;;;;;4407104;32;20026;-72
2022/09/05 20:26:00;;;;;;;10.55;8.20;;;;;;;;;;4419640;32;20415;-73
2022/09/05 20:28:28;;;;;;;12.65;8.10;;;;;;;;;;4422023;32;20411;-72
2022/09/05 20:30:57;;;;;;;9.68;6.57;;;;;;;;;;4420154;32;20061;-72
2022/09/05 20:33:39;;;;;;;11.10;6.65;;;;;;;;;;4421921;32;20057;-72
2022/09/05 20:36:07;;;;;;;8.60;5.12;;;;;;;;;;4420960;32;20053;-72
2022/09/05 20:38:36;;;;;;;6.97;4.70;;;;;;;;;;4420629;32;20029;-72
2022/09/05 20:41:03;;;;;;;6.97;4.70;;;;;;;;;;4416460;32;20060;-73
2022/09/05 20:43:50;;;;;;;6.65;4.90;;;;;;;;;;4420530;32;20026;-73
2022/09/05 20:46:38;;;;;;;7.20;4.80;;;;;;;;;;4418538;32;20070;-73
2022/09/05 20:49:06;;;;;;;9.30;5.18;;;;;;;;;;4419031;32;20049;-73
2022/09/05 20:51:32;;;;;;;7.95;5.15;;;;;;;;;;4421248;32;20064;-72
2022/09/05 20:53:57;;;;;;;11.23;6.10;;;;;;;;;;4418308;32;20367;-73
2022/09/05 20:56:29;;;;;;;7.78;5.20;;;;;;;;;;4420026;32;20097;-71
2022/09/05 20:58:57;;;;;;;17.65;6.28;;;;;;;;;;4419922;32;20140;-71
2022/09/05 21:01:25;;;;;;;13.45;4.07;;;;;;;;;;4420191;32;20053;-72
2022/09/05 21:16:40;;;;;;;8.60;4.80;;;;;;;;;;4420631;32;20059;-73
2022/09/05 21:50:04;;;;;;;;;;;;;;;;;;;;;
2022/09/05 22:26:43;;;;;;;5.80;5.07;;;;;;;;;;4344971;33;20046;-73
2022/09/05 22:29:18;;;;;;;12.52;5.50;;;;;;;;;;4345410;33;20170;-73
2022/09/05 22:31:44;;;;;;;10.20;5.28;;;;;;;;;;4345550;33;20022;-73